SBSN/STM METAR and TAF weather

Enter ICAO airport designator
Station Type Date Time Source
SBSN METAR 2021/09/24 02:00 UTC NOAA

SBSN 240200Z 15005KT CAVOK 26/24 Q1011


Station Type Date Time Source
SBSN Decoded METAR 2021/09/24 02:00 UTC NOAA

Santarem-Aeroporto, Brazil (SBSN) 02-26S 054-43W 72M
Sep 23, 2021 - 10:00 PM EDT / 2021.09.24 0200 UTC
Wind: from the SSE (150 degrees) at 6 MPH (5 KT):0
Visibility: greater than 7 mile(s):0
Temperature: 78 F (26 C)
Dew Point: 75 F (24 C)
Relative Humidity: 88%
Pressure (altimeter): 29.85 in. Hg (1011 hPa)
ob: SBSN 240200Z 15005KT CAVOK 26/24 Q1011
cycle: 2

Station Type Date Time Source
SBSN TAF 2021/09/23 18:33 UTC NOAA

TAF SBSN 231600Z 2318/2418 09010KT 9999 FEW020 TX33/2319Z TN25/2408Z
BECMG 2322/2324 17005KT PROB40 2405/2409 TS SCT015 FEW020CB
BECMG 2409/2412 09012KT
RMK PHC

Example: see airport list